sensor_id;sensor_type;location;lat;lon;timestamp;P1;durP1;ratioP1;P2;durP2;ratioP2
5813;SDS011;2933;52.302;8.134;2023-03-03T00:04:19;57.07;;;17.93;;
5813;SDS011;2933;52.302;8.134;2023-03-03T00:09:20;45.40;;;14.57;;
5813;SDS011;2933;52.302;8.134;2023-03-03T00:14:27;59.10;;;16.30;;
5813;SDS011;2933;52.302;8.134;2023-03-03T00:19:30;54.73;;;16.57;;
5813;SDS011;2933;52.302;8.134;2023-03-03T00:24:38;44.17;;;15.20;;
5813;SDS011;2933;52.302;8.134;2023-03-03T00:29:41;56.47;;;16.40;;
5813;SDS011;2933;52.302;8.134;2023-03-03T00:34:48;60.17;;;17.37;;
5813;SDS011;2933;52.302;8.134;2023-03-03T00:39:50;53.97;;;16.40;;
5813;SDS011;2933;52.302;8.134;2023-03-03T00:44:56;69.53;;;19.80;;
5813;SDS011;2933;52.302;8.134;2023-03-03T00:50:16;71.50;;;17.17;;
5813;SDS011;2933;52.302;8.134;2023-03-03T00:55:25;43.90;;;14.67;;
5813;SDS011;2933;52.302;8.134;2023-03-03T01:00:28;49.83;;;14.73;;
5813;SDS011;2933;52.302;8.134;2023-03-03T01:05:30;46.53;;;13.10;;
5813;SDS011;2933;52.302;8.134;2023-03-03T01:10:33;40.60;;;13.47;;
5813;SDS011;2933;52.302;8.134;2023-03-03T01:15:39;52.47;;;13.17;;
5813;SDS011;2933;52.302;8.134;2023-03-03T01:20:41;45.83;;;13.93;;
5813;SDS011;2933;52.302;8.134;2023-03-03T01:25:42;39.33;;;13.40;;
5813;SDS011;2933;52.302;8.134;2023-03-03T01:30:45;57.53;;;14.00;;
5813;SDS011;2933;52.302;8.134;2023-03-03T01:35:47;49.80;;;14.00;;
5813;SDS011;2933;52.302;8.134;2023-03-03T01:40:51;37.57;;;11.87;;
5813;SDS011;2933;52.302;8.134;2023-03-03T01:51:31;44.63;;;13.57;;
5813;SDS011;2933;52.302;8.134;2023-03-03T01:56:36;37.50;;;12.47;;
5813;SDS011;2933;52.302;8.134;2023-03-03T02:01:38;42.63;;;13.30;;
5813;SDS011;2933;52.302;8.134;2023-03-03T02:06:43;46.40;;;13.97;;
5813;SDS011;2933;52.302;8.134;2023-03-03T02:11:48;53.57;;;13.70;;
5813;SDS011;2933;52.302;8.134;2023-03-03T02:16:53;51.80;;;13.63;;
5813;SDS011;2933;52.302;8.134;2023-03-03T02:21:55;34.33;;;11.50;;
5813;SDS011;2933;52.302;8.134;2023-03-03T02:26:58;38.70;;;11.60;;
5813;SDS011;2933;52.302;8.134;2023-03-03T02:32:00;36.13;;;11.43;;
5813;SDS011;2933;52.302;8.134;2023-03-03T02:37:02;40.10;;;11.27;;
5813;SDS011;2933;52.302;8.134;2023-03-03T02:42:06;33.70;;;11.63;;
5813;SDS011;2933;52.302;8.134;2023-03-03T02:47:10;36.30;;;12.13;;
5813;SDS011;2933;52.302;8.134;2023-03-03T02:52:11;37.57;;;11.70;;
5813;SDS011;2933;52.302;8.134;2023-03-03T02:57:15;39.20;;;10.73;;
5813;SDS011;2933;52.302;8.134;2023-03-03T03:02:16;36.00;;;11.13;;
5813;SDS011;2933;52.302;8.134;2023-03-03T03:07:19;35.50;;;11.80;;
5813;SDS011;2933;52.302;8.134;2023-03-03T03:12:22;37.67;;;11.97;;
5813;SDS011;2933;52.302;8.134;2023-03-03T03:17:23;35.77;;;11.90;;
5813;SDS011;2933;52.302;8.134;2023-03-03T03:22:25;33.53;;;11.17;;
5813;SDS011;2933;52.302;8.134;2023-03-03T03:27:28;42.47;;;10.97;;
5813;SDS011;2933;52.302;8.134;2023-03-03T03:32:30;33.43;;;10.80;;
5813;SDS011;2933;52.302;8.134;2023-03-03T03:37:31;34.10;;;10.70;;
5813;SDS011;2933;52.302;8.134;2023-03-03T03:42:34;30.27;;;10.40;;
5813;SDS011;2933;52.302;8.134;2023-03-03T03:47:38;34.53;;;10.83;;
5813;SDS011;2933;52.302;8.134;2023-03-03T03:52:40;35.37;;;11.43;;
5813;SDS011;2933;52.302;8.134;2023-03-03T03:57:43;31.03;;;10.07;;
5813;SDS011;2933;52.302;8.134;2023-03-03T04:02:45;38.63;;;11.33;;
5813;SDS011;2933;52.302;8.134;2023-03-03T04:07:46;34.33;;;9.87;;
5813;SDS011;2933;52.302;8.134;2023-03-03T04:12:49;34.00;;;10.90;;
5813;SDS011;2933;52.302;8.134;2023-03-03T04:17:51;36.23;;;11.73;;
5813;SDS011;2933;52.302;8.134;2023-03-03T04:22:53;35.93;;;11.27;;
5813;SDS011;2933;52.302;8.134;2023-03-03T04:27:57;43.17;;;12.00;;
5813;SDS011;2933;52.302;8.134;2023-03-03T04:32:58;35.27;;;11.50;;
5813;SDS011;2933;52.302;8.134;2023-03-03T04:38:00;32.43;;;11.50;;
5813;SDS011;2933;52.302;8.134;2023-03-03T04:43:03;35.40;;;11.00;;
5813;SDS011;2933;52.302;8.134;2023-03-03T04:48:05;40.27;;;11.50;;
5813;SDS011;2933;52.302;8.134;2023-03-03T04:53:06;33.47;;;11.00;;
5813;SDS011;2933;52.302;8.134;2023-03-03T04:58:09;38.00;;;11.20;;
5813;SDS011;2933;52.302;8.134;2023-03-03T05:03:11;48.60;;;12.67;;
5813;SDS011;2933;52.302;8.134;2023-03-03T05:08:13;36.70;;;12.10;;
5813;SDS011;2933;52.302;8.134;2023-03-03T05:13:16;49.67;;;12.20;;
5813;SDS011;2933;52.302;8.134;2023-03-03T05:18:18;34.87;;;11.27;;
5813;SDS011;2933;52.302;8.134;2023-03-03T05:23:20;33.53;;;10.80;;
5813;SDS011;2933;52.302;8.134;2023-03-03T05:28:23;31.23;;;9.30;;
5813;SDS011;2933;52.302;8.134;2023-03-03T05:33:25;37.10;;;11.40;;
5813;SDS011;2933;52.302;8.134;2023-03-03T05:38:26;37.57;;;10.47;;
5813;SDS011;2933;52.302;8.134;2023-03-03T05:43:29;49.47;;;12.97;;
5813;SDS011;2933;52.302;8.134;2023-03-03T05:48:31;40.50;;;11.47;;
5813;SDS011;2933;52.302;8.134;2023-03-03T05:53:32;39.67;;;11.67;;
5813;SDS011;2933;52.302;8.134;2023-03-03T05:58:35;35.57;;;11.53;;
5813;SDS011;2933;52.302;8.134;2023-03-03T06:03:37;43.53;;;12.50;;
5813;SDS011;2933;52.302;8.134;2023-03-03T06:08:38;47.00;;;12.80;;
5813;SDS011;2933;52.302;8.134;2023-03-03T06:13:41;45.63;;;11.90;;
5813;SDS011;2933;52.302;8.134;2023-03-03T06:18:43;44.23;;;13.53;;
5813;SDS011;2933;52.302;8.134;2023-03-03T06:23:44;38.90;;;12.00;;
5813;SDS011;2933;52.302;8.134;2023-03-03T06:28:47;32.77;;;11.13;;
5813;SDS011;2933;52.302;8.134;2023-03-03T06:33:49;40.67;;;12.30;;
5813;SDS011;2933;52.302;8.134;2023-03-03T06:38:51;38.83;;;12.80;;
5813;SDS011;2933;52.302;8.134;2023-03-03T06:43:54;36.97;;;11.37;;
5813;SDS011;2933;52.302;8.134;2023-03-03T06:48:55;33.97;;;10.93;;
5813;SDS011;2933;52.302;8.134;2023-03-03T06:53:57;30.97;;;9.93;;
5813;SDS011;2933;52.302;8.134;2023-03-03T06:59:09;30.60;;;9.90;;
5813;SDS011;2933;52.302;8.134;2023-03-03T07:04:14;36.47;;;9.97;;
5813;SDS011;2933;52.302;8.134;2023-03-03T07:09:23;28.60;;;9.10;;
5813;SDS011;2933;52.302;8.134;2023-03-03T07:14:28;28.13;;;9.77;;
5813;SDS011;2933;52.302;8.134;2023-03-03T07:19:32;29.97;;;10.90;;
5813;SDS011;2933;52.302;8.134;2023-03-03T07:24:35;30.10;;;10.30;;
5813;SDS011;2933;52.302;8.134;2023-03-03T07:29:39;34.67;;;10.90;;
5813;SDS011;2933;52.302;8.134;2023-03-03T07:34:42;38.77;;;11.57;;
5813;SDS011;2933;52.302;8.134;2023-03-03T07:39:46;29.30;;;10.20;;
5813;SDS011;2933;52.302;8.134;2023-03-03T07:44:52;36.67;;;11.67;;
5813;SDS011;2933;52.302;8.134;2023-03-03T07:49:56;37.13;;;11.50;;
5813;SDS011;2933;52.302;8.134;2023-03-03T07:55:01;44.47;;;12.47;;
5813;SDS011;2933;52.302;8.134;2023-03-03T08:06:23;41.30;;;11.73;;
5813;SDS011;2933;52.302;8.134;2023-03-03T08:11:39;46.57;;;13.40;;
5813;SDS011;2933;52.302;8.134;2023-03-03T08:16:49;43.90;;;11.40;;
5813;SDS011;2933;52.302;8.134;2023-03-03T08:21:52;53.43;;;14.30;;
5813;SDS011;2933;52.302;8.134;2023-03-03T08:26:58;53.63;;;14.07;;
5813;SDS011;2933;52.302;8.134;2023-03-03T08:32:00;54.10;;;14.20;;
5813;SDS011;2933;52.302;8.134;2023-03-03T08:37:03;59.07;;;14.10;;
5813;SDS011;2933;52.302;8.134;2023-03-03T08:42:05;57.83;;;15.53;;
5813;SDS011;2933;52.302;8.134;2023-03-03T08:47:07;57.10;;;14.50;;
5813;SDS011;2933;52.302;8.134;2023-03-03T08:52:10;64.50;;;15.67;;
5813;SDS011;2933;52.302;8.134;2023-03-03T08:57:11;43.13;;;14.60;;
5813;SDS011;2933;52.302;8.134;2023-03-03T09:02:13;58.20;;;16.40;;
5813;SDS011;2933;52.302;8.134;2023-03-03T09:07:17;55.80;;;15.10;;
5813;SDS011;2933;52.302;8.134;2023-03-03T09:12:21;46.17;;;14.27;;
5813;SDS011;2933;52.302;8.134;2023-03-03T09:17:27;46.20;;;13.33;;
5813;SDS011;2933;52.302;8.134;2023-03-03T09:22:34;57.73;;;13.50;;
5813;SDS011;2933;52.302;8.134;2023-03-03T09:27:38;63.13;;;15.90;;
5813;SDS011;2933;52.302;8.134;2023-03-03T09:32:40;57.17;;;14.17;;
5813;SDS011;2933;52.302;8.134;2023-03-03T09:37:43;70.30;;;19.40;;
5813;SDS011;2933;52.302;8.134;2023-03-03T09:42:50;55.97;;;15.00;;
5813;SDS011;2933;52.302;8.134;2023-03-03T09:48:03;62.50;;;14.93;;
5813;SDS011;2933;52.302;8.134;2023-03-03T09:53:24;56.17;;;14.40;;
5813;SDS011;2933;52.302;8.134;2023-03-03T09:58:44;59.40;;;16.10;;
5813;SDS011;2933;52.302;8.134;2023-03-03T10:03:59;51.67;;;15.33;;
5813;SDS011;2933;52.302;8.134;2023-03-03T10:14:47;62.90;;;15.77;;
5813;SDS011;2933;52.302;8.134;2023-03-03T10:20:02;50.13;;;15.70;;
5813;SDS011;2933;52.302;8.134;2023-03-03T10:25:15;56.50;;;14.83;;
5813;SDS011;2933;52.302;8.134;2023-03-03T10:30:27;57.40;;;14.60;;
5813;SDS011;2933;52.302;8.134;2023-03-03T10:35:46;42.67;;;13.90;;
5813;SDS011;2933;52.302;8.134;2023-03-03T10:41:13;43.53;;;13.33;;
5813;SDS011;2933;52.302;8.134;2023-03-03T10:46:29;42.20;;;11.90;;
5813;SDS011;2933;52.302;8.134;2023-03-03T10:51:43;29.77;;;11.07;;
5813;SDS011;2933;52.302;8.134;2023-03-03T10:56:58;32.60;;;11.50;;
5813;SDS011;2933;52.302;8.134;2023-03-03T11:02:06;31.50;;;10.73;;
5813;SDS011;2933;52.302;8.134;2023-03-03T11:07:18;27.13;;;9.27;;
5813;SDS011;2933;52.302;8.134;2023-03-03T11:12:30;29.93;;;10.97;;
5813;SDS011;2933;52.302;8.134;2023-03-03T11:17:48;34.73;;;11.30;;
5813;SDS011;2933;52.302;8.134;2023-03-03T11:23:00;33.53;;;11.50;;
5813;SDS011;2933;52.302;8.134;2023-03-03T11:28:27;29.20;;;10.40;;
5813;SDS011;2933;52.302;8.134;2023-03-03T11:33:41;33.43;;;11.20;;
5813;SDS011;2933;52.302;8.134;2023-03-03T11:38:53;37.00;;;12.47;;
5813;SDS011;2933;52.302;8.134;2023-03-03T11:44:02;36.13;;;12.17;;
5813;SDS011;2933;52.302;8.134;2023-03-03T11:49:12;39.37;;;11.70;;
5813;SDS011;2933;52.302;8.134;2023-03-03T11:54:19;27.47;;;10.40;;
5813;SDS011;2933;52.302;8.134;2023-03-03T11:59:40;27.27;;;11.00;;
5813;SDS011;2933;52.302;8.134;2023-03-03T12:04:59;32.20;;;11.13;;
5813;SDS011;2933;52.302;8.134;2023-03-03T12:10:13;28.00;;;10.30;;
5813;SDS011;2933;52.302;8.134;2023-03-03T12:15:27;34.00;;;12.03;;
5813;SDS011;2933;52.302;8.134;2023-03-03T12:20:37;33.47;;;10.70;;
5813;SDS011;2933;52.302;8.134;2023-03-03T12:25:45;29.10;;;10.87;;
5813;SDS011;2933;52.302;8.134;2023-03-03T12:31:06;28.67;;;11.30;;
5813;SDS011;2933;52.302;8.134;2023-03-03T12:36:29;21.23;;;9.53;;
5813;SDS011;2933;52.302;8.134;2023-03-03T12:41:44;20.33;;;8.97;;
5813;SDS011;2933;52.302;8.134;2023-03-03T12:46:58;23.87;;;10.17;;
5813;SDS011;2933;52.302;8.134;2023-03-03T12:52:04;21.60;;;10.03;;
5813;SDS011;2933;52.302;8.134;2023-03-03T12:57:16;20.50;;;9.77;;
5813;SDS011;2933;52.302;8.134;2023-03-03T13:02:37;28.13;;;11.30;;
5813;SDS011;2933;52.302;8.134;2023-03-03T13:07:44;26.40;;;9.90;;
5813;SDS011;2933;52.302;8.134;2023-03-03T13:12:53;20.50;;;9.47;;
5813;SDS011;2933;52.302;8.134;2023-03-03T13:18:08;19.00;;;9.57;;
5813;SDS011;2933;52.302;8.134;2023-03-03T13:23:22;20.40;;;9.20;;
5813;SDS011;2933;52.302;8.134;2023-03-03T13:28:37;26.70;;;10.07;;
5813;SDS011;2933;52.302;8.134;2023-03-03T13:33:45;25.30;;;9.60;;
5813;SDS011;2933;52.302;8.134;2023-03-03T13:38:55;16.47;;;8.77;;
5813;SDS011;2933;52.302;8.134;2023-03-03T13:44:03;22.93;;;8.87;;
5813;SDS011;2933;52.302;8.134;2023-03-03T13:49:15;18.00;;;7.53;;
5813;SDS011;2933;52.302;8.134;2023-03-03T13:54:41;19.73;;;8.70;;
5813;SDS011;2933;52.302;8.134;2023-03-03T14:00:00;20.00;;;8.30;;
5813;SDS011;2933;52.302;8.134;2023-03-03T14:05:12;16.73;;;8.30;;
5813;SDS011;2933;52.302;8.134;2023-03-03T14:10:17;11.63;;;7.67;;
5813;SDS011;2933;52.302;8.134;2023-03-03T14:15:25;16.17;;;7.53;;
5813;SDS011;2933;52.302;8.134;2023-03-03T14:20:32;16.90;;;6.97;;
5813;SDS011;2933;52.302;8.134;2023-03-03T14:25:51;15.17;;;7.47;;
5813;SDS011;2933;52.302;8.134;2023-03-03T14:30:54;14.90;;;6.80;;
5813;SDS011;2933;52.302;8.134;2023-03-03T14:36:03;22.03;;;9.10;;
5813;SDS011;2933;52.302;8.134;2023-03-03T14:46:37;14.10;;;6.87;;
5813;SDS011;2933;52.302;8.134;2023-03-03T14:51:42;17.73;;;7.13;;
5813;SDS011;2933;52.302;8.134;2023-03-03T14:56:54;15.10;;;6.90;;
5813;SDS011;2933;52.302;8.134;2023-03-03T15:02:21;14.60;;;7.63;;
5813;SDS011;2933;52.302;8.134;2023-03-03T15:07:32;14.90;;;7.07;;
5813;SDS011;2933;52.302;8.134;2023-03-03T15:12:36;18.60;;;6.93;;
5813;SDS011;2933;52.302;8.134;2023-03-03T15:17:40;11.73;;;6.70;;
5813;SDS011;2933;52.302;8.134;2023-03-03T15:22:47;14.77;;;7.60;;
5813;SDS011;2933;52.302;8.134;2023-03-03T15:27:50;13.40;;;6.13;;
5813;SDS011;2933;52.302;8.134;2023-03-03T15:33:10;11.77;;;6.13;;
5813;SDS011;2933;52.302;8.134;2023-03-03T15:38:28;11.10;;;6.90;;
5813;SDS011;2933;52.302;8.134;2023-03-03T15:43:39;11.97;;;6.70;;
5813;SDS011;2933;52.302;8.134;2023-03-03T15:48:52;18.23;;;7.83;;
5813;SDS011;2933;52.302;8.134;2023-03-03T15:54:12;13.13;;;7.00;;
5813;SDS011;2933;52.302;8.134;2023-03-03T16:05:06;13.23;;;6.90;;
5813;SDS011;2933;52.302;8.134;2023-03-03T16:10:20;14.70;;;6.47;;
5813;SDS011;2933;52.302;8.134;2023-03-03T16:20:51;12.43;;;6.27;;
5813;SDS011;2933;52.302;8.134;2023-03-03T16:26:06;13.43;;;7.10;;
5813;SDS011;2933;52.302;8.134;2023-03-03T16:31:16;14.13;;;6.47;;
5813;SDS011;2933;52.302;8.134;2023-03-03T16:36:25;14.70;;;6.00;;
5813;SDS011;2933;52.302;8.134;2023-03-03T16:41:40;13.30;;;6.40;;
5813;SDS011;2933;52.302;8.134;2023-03-03T16:46:47;8.47;;;5.40;;
5813;SDS011;2933;52.302;8.134;2023-03-03T16:51:50;7.07;;;4.63;;
5813;SDS011;2933;52.302;8.134;2023-03-03T16:56:59;11.97;;;4.07;;
5813;SDS011;2933;52.302;8.134;2023-03-03T17:02:13;5.53;;;3.47;;
5813;SDS011;2933;52.302;8.134;2023-03-03T17:07:33;4.50;;;2.97;;
5813;SDS011;2933;52.302;8.134;2023-03-03T17:12:49;5.97;;;2.63;;
5813;SDS011;2933;52.302;8.134;2023-03-03T17:18:03;6.10;;;2.70;;
5813;SDS011;2933;52.302;8.134;2023-03-03T17:23:26;5.43;;;2.13;;
5813;SDS011;2933;52.302;8.134;2023-03-03T17:28:45;1.93;;;1.83;;
5813;SDS011;2933;52.302;8.134;2023-03-03T17:33:59;2.93;;;2.73;;
5813;SDS011;2933;52.302;8.134;2023-03-03T17:39:17;6.33;;;2.03;;
5813;SDS011;2933;52.302;8.134;2023-03-03T17:44:32;4.17;;;2.60;;
5813;SDS011;2933;52.302;8.134;2023-03-03T17:49:44;4.70;;;2.43;;
5813;SDS011;2933;52.302;8.134;2023-03-03T17:55:00;2.90;;;2.70;;
5813;SDS011;2933;52.302;8.134;2023-03-03T18:00:23;6.30;;;2.70;;
5813;SDS011;2933;52.302;8.134;2023-03-03T18:05:36;9.10;;;2.73;;
5813;SDS011;2933;52.302;8.134;2023-03-03T18:10:51;2.47;;;2.27;;
5813;SDS011;2933;52.302;8.134;2023-03-03T18:16:33;4.47;;;3.97;;
5813;SDS011;2933;52.302;8.134;2023-03-03T18:21:50;5.83;;;2.47;;
5813;SDS011;2933;52.302;8.134;2023-03-03T18:27:11;3.77;;;2.83;;
5813;SDS011;2933;52.302;8.134;2023-03-03T18:32:19;5.03;;;2.87;;
5813;SDS011;2933;52.302;8.134;2023-03-03T18:37:35;11.70;;;2.60;;
5813;SDS011;2933;52.302;8.134;2023-03-03T18:42:43;2.87;;;2.53;;
5813;SDS011;2933;52.302;8.134;2023-03-03T18:47:59;6.13;;;2.67;;
5813;SDS011;2933;52.302;8.134;2023-03-03T18:53:13;2.30;;;2.10;;
5813;SDS011;2933;52.302;8.134;2023-03-03T18:58:23;5.97;;;3.20;;
5813;SDS011;2933;52.302;8.134;2023-03-03T19:03:35;14.37;;;3.03;;
5813;SDS011;2933;52.302;8.134;2023-03-03T19:08:56;10.60;;;3.73;;
5813;SDS011;2933;52.302;8.134;2023-03-03T19:14:11;9.43;;;2.77;;
5813;SDS011;2933;52.302;8.134;2023-03-03T19:19:21;2.73;;;2.27;;
5813;SDS011;2933;52.302;8.134;2023-03-03T19:24:27;6.20;;;1.63;;
5813;SDS011;2933;52.302;8.134;2023-03-03T19:35:25;3.87;;;2.57;;
5813;SDS011;2933;52.302;8.134;2023-03-03T19:40:36;2.63;;;1.83;;
5813;SDS011;2933;52.302;8.134;2023-03-03T19:45:48;4.57;;;2.90;;
5813;SDS011;2933;52.302;8.134;2023-03-03T19:51:03;3.13;;;2.83;;
5813;SDS011;2933;52.302;8.134;2023-03-03T19:56:14;2.80;;;2.40;;
5813;SDS011;2933;52.302;8.134;2023-03-03T20:01:30;2.20;;;2.10;;
5813;SDS011;2933;52.302;8.134;2023-03-03T20:06:51;3.30;;;2.90;;
5813;SDS011;2933;52.302;8.134;2023-03-03T20:12:00;3.67;;;2.30;;
5813;SDS011;2933;52.302;8.134;2023-03-03T20:17:26;6.60;;;2.40;;
5813;SDS011;2933;52.302;8.134;2023-03-03T20:22:45;10.17;;;3.00;;
5813;SDS011;2933;52.302;8.134;2023-03-03T20:27:54;6.30;;;2.00;;
5813;SDS011;2933;52.302;8.134;2023-03-03T20:38:43;12.63;;;2.67;;
5813;SDS011;2933;52.302;8.134;2023-03-03T20:43:56;9.60;;;2.40;;
5813;SDS011;2933;52.302;8.134;2023-03-03T20:49:10;18.47;;;2.73;;
5813;SDS011;2933;52.302;8.134;2023-03-03T20:54:26;14.63;;;2.20;;
5813;SDS011;2933;52.302;8.134;2023-03-03T20:59:36;11.70;;;2.23;;
5813;SDS011;2933;52.302;8.134;2023-03-03T21:04:43;6.37;;;2.00;;
5813;SDS011;2933;52.302;8.134;2023-03-03T21:09:46;13.03;;;2.83;;
5813;SDS011;2933;52.302;8.134;2023-03-03T21:14:57;17.57;;;2.70;;
5813;SDS011;2933;52.302;8.134;2023-03-03T21:20:18;17.33;;;3.40;;
5813;SDS011;2933;52.302;8.134;2023-03-03T21:31:01;16.10;;;3.10;;
5813;SDS011;2933;52.302;8.134;2023-03-03T21:36:05;20.30;;;4.23;;
5813;SDS011;2933;52.302;8.134;2023-03-03T21:41:08;12.67;;;2.70;;
5813;SDS011;2933;52.302;8.134;2023-03-03T21:46:11;19.13;;;2.07;;
5813;SDS011;2933;52.302;8.134;2023-03-03T21:51:14;12.63;;;2.37;;
5813;SDS011;2933;52.302;8.134;2023-03-03T21:56:17;8.77;;;3.20;;
5813;SDS011;2933;52.302;8.134;2023-03-03T22:01:18;11.50;;;2.40;;
5813;SDS011;2933;52.302;8.134;2023-03-03T22:06:21;22.27;;;2.50;;
5813;SDS011;2933;52.302;8.134;2023-03-03T22:11:24;20.47;;;3.27;;
5813;SDS011;2933;52.302;8.134;2023-03-03T22:16:25;8.53;;;2.40;;
5813;SDS011;2933;52.302;8.134;2023-03-03T22:21:27;19.07;;;3.53;;
5813;SDS011;2933;52.302;8.134;2023-03-03T22:26:30;13.17;;;2.40;;
5813;SDS011;2933;52.302;8.134;2023-03-03T22:31:32;15.33;;;2.23;;
5813;SDS011;2933;52.302;8.134;2023-03-03T22:36:33;16.77;;;2.73;;
5813;SDS011;2933;52.302;8.134;2023-03-03T22:41:36;14.57;;;2.50;;
5813;SDS011;2933;52.302;8.134;2023-03-03T22:46:38;18.90;;;3.53;;
5813;SDS011;2933;52.302;8.134;2023-03-03T22:51:40;21.20;;;4.13;;
5813;SDS011;2933;52.302;8.134;2023-03-03T22:56:43;17.30;;;3.37;;
5813;SDS011;2933;52.302;8.134;2023-03-03T23:01:44;9.70;;;2.63;;
5813;SDS011;2933;52.302;8.134;2023-03-03T23:06:46;18.00;;;2.60;;
5813;SDS011;2933;52.302;8.134;2023-03-03T23:11:50;10.90;;;2.50;;
5813;SDS011;2933;52.302;8.134;2023-03-03T23:16:52;10.70;;;2.67;;
5813;SDS011;2933;52.302;8.134;2023-03-03T23:21:53;6.93;;;2.50;;
5813;SDS011;2933;52.302;8.134;2023-03-03T23:26:56;27.83;;;2.47;;
5813;SDS011;2933;52.302;8.134;2023-03-03T23:31:59;14.70;;;2.67;;
5813;SDS011;2933;52.302;8.134;2023-03-03T23:37:01;11.63;;;2.83;;
5813;SDS011;2933;52.302;8.134;2023-03-03T23:42:04;30.83;;;3.23;;
5813;SDS011;2933;52.302;8.134;2023-03-03T23:47:06;9.03;;;2.00;;
5813;SDS011;2933;52.302;8.134;2023-03-03T23:52:08;9.80;;;1.90;;
5813;SDS011;2933;52.302;8.134;2023-03-03T23:57:11;19.73;;;2.50;;
